Time;durP1;ratioP1;P1;durP2;ratioP2;P2;SDS_P1;SDS_P2;PMS_P1;PMS_P2;Temp;Humidity;BMP_temperature;BMP_pressure;BME280_temperature;BME280_humidity;BME280_pressure;Samples;Min_cycle;Max_cycle;Signal;HPM_P1;HPM_P2
2022/12/24 00:00:59;;;;;;;293.05;118.22;;;;;;;1.14;100.00;97414.38;4958515;28;20030;-80
2022/12/24 00:03:25;;;;;;;293.40;123.63;;;;;;;1.11;100.00;97413.63;4967102;28;20089;-81
2022/12/24 00:05:51;;;;;;;281.05;117.80;;;;;;;1.04;100.00;97421.69;4981309;28;20031;-80
2022/12/24 00:08:16;;;;;;;289.25;116.25;;;;;;;1.04;100.00;97426.94;4990637;28;20117;-80
2022/12/24 00:10:43;;;;;;;256.55;107.03;;;;;;;1.03;100.00;97432.22;4972744;28;20556;-80
2022/12/24 00:13:08;;;;;;;243.90;104.70;;;;;;;1.04;100.00;97431.34;4962712;28;20035;-80
2022/12/24 00:15:34;;;;;;;224.55;92.63;;;;;;;0.92;100.00;97421.13;4978848;28;20066;-80
2022/12/24 00:17:59;;;;;;;247.68;101.43;;;;;;;0.98;100.00;97429.75;4970448;28;20062;-80
2022/12/24 00:20:25;;;;;;;225.38;93.20;;;;;;;0.88;100.00;97417.72;4961403;28;20071;-80
2022/12/24 00:22:50;;;;;;;183.90;78.30;;;;;;;0.89;100.00;97418.56;4979721;28;20027;-81
2022/12/24 00:25:16;;;;;;;211.98;78.68;;;;;;;0.89;100.00;97419.41;4968383;28;20026;-81
2022/12/24 00:27:41;;;;;;;192.52;72.70;;;;;;;0.81;100.00;97418.75;4957679;28;20073;-80
2022/12/24 00:30:08;;;;;;;226.82;86.95;;;;;;;0.83;100.00;97413.47;4992434;28;20030;-80
2022/12/24 00:32:33;;;;;;;205.43;79.85;;;;;;;0.81;100.00;97412.63;4977188;28;20109;-80
2022/12/24 00:34:59;;;;;;;223.48;87.35;;;;;;;0.88;100.00;97427.38;4982307;28;20054;-80
2022/12/24 00:37:24;;;;;;;197.48;75.15;;;;;;;0.76;100.00;97415.41;4982060;28;20118;-80
2022/12/24 00:39:50;;;;;;;189.65;75.18;;;;;;;0.82;100.00;97409.09;4991851;28;20026;-81
2022/12/24 00:42:15;;;;;;;160.35;61.40;;;;;;;0.80;100.00;97424.91;4985634;28;20030;-80
2022/12/24 00:44:41;;;;;;;175.80;68.35;;;;;;;0.75;100.00;97418.06;4976936;28;20073;-81
2022/12/24 00:47:06;;;;;;;208.90;74.93;;;;;;;0.76;100.00;97418.03;4993141;28;20026;-81
2022/12/24 00:49:32;;;;;;;197.43;74.40;;;;;;;0.81;100.00;97420.53;4976872;28;20022;-80
2022/12/24 00:51:57;;;;;;;200.23;72.20;;;;;;;0.84;100.00;97428.34;4985038;28;20041;-81
2022/12/24 00:54:23;;;;;;;255.88;106.50;;;;;;;0.86;100.00;97430.03;4971139;28;20034;-80
2022/12/24 00:56:48;;;;;;;215.43;84.13;;;;;;;0.79;100.00;97424.97;4974598;28;20026;-80
2022/12/24 00:59:14;;;;;;;216.00;92.97;;;;;;;0.78;100.00;97426.75;4972167;28;20018;-80
2022/12/24 01:01:39;;;;;;;239.63;90.05;;;;;;;0.81;100.00;97431.06;4965340;28;20033;-80
2022/12/24 01:06:49;;;;;;;125.85;49.80;;;;;;;0.78;100.00;97436.41;4990883;28;20049;-80
2022/12/24 01:09:14;;;;;;;140.07;49.10;;;;;;;0.73;100.00;97423.38;4964563;28;20117;-79
2022/12/24 01:11:40;;;;;;;117.28;47.55;;;;;;;0.67;100.00;97433.19;4973392;28;20416;-80
2022/12/24 01:14:06;;;;;;;101.43;41.30;;;;;;;0.63;100.00;97426.25;4973587;28;20034;-79
2022/12/24 01:16:31;;;;;;;108.35;41.95;;;;;;;0.52;100.00;97416.84;4965465;28;20033;-79
2022/12/24 01:18:57;;;;;;;111.45;43.28;;;;;;;0.72;100.00;97444.44;4973026;28;20203;-80
2022/12/24 01:21:23;;;;;;;116.20;46.22;;;;;;;0.60;100.00;97435.09;4970491;28;20108;-79
2022/12/24 01:23:48;;;;;;;108.55;44.38;;;;;;;0.69;100.00;97441.88;4960638;28;20089;-80
2022/12/24 01:26:14;;;;;;;111.55;45.85;;;;;;;0.72;100.00;97439.19;4972647;28;20033;-79
2022/12/24 01:28:39;;;;;;;123.57;49.08;;;;;;;0.65;100.00;97430.56;4957126;28;20501;-80
2022/12/24 01:31:13;;;;;;;124.97;50.33;;;;;;;0.60;100.00;97429.84;4975861;28;20045;-79
2022/12/24 01:33:39;;;;;;;116.10;45.67;;;;;;;0.66;100.00;97436.72;4976501;28;20030;-80
2022/12/24 01:36:05;;;;;;;99.05;41.70;;;;;;;0.60;100.00;97426.34;4976206;28;20034;-79
2022/12/24 01:38:31;;;;;;;94.93;40.35;;;;;;;0.70;100.00;97433.09;4976239;28;20034;-79
2022/12/24 01:43:40;;;;;;;71.72;30.15;;;;;;;0.55;100.00;97411.50;4985313;28;20100;-80
2022/12/24 01:46:06;;;;;;;71.05;29.70;;;;;;;0.59;100.00;97421.97;4959189;28;20031;-79
2022/12/24 01:48:47;;;;;;;61.55;26.02;;;;;;;0.60;100.00;97421.06;4992523;28;20030;-79
2022/12/24 01:51:36;;;;;;;69.75;26.10;;;;;;;0.66;100.00;97421.78;4992387;28;20105;-80
2022/12/24 01:54:32;;;;;;;62.53;24.13;;;;;;;0.65;100.00;97427.09;4967646;28;20026;-79
2022/12/24 01:57:01;;;;;;;55.38;22.60;;;;;;;0.58;100.00;97428.16;4975623;28;20034;-80
2022/12/24 01:59:27;;;;;;;58.47;23.35;;;;;;;0.67;100.00;97443.72;4983810;28;20022;-80
2022/12/24 02:01:53;;;;;;;55.95;24.50;;;;;;;0.57;100.00;97426.41;4967211;28;20027;-79
2022/12/24 02:04:35;;;;;;;67.65;30.35;;;;;;;0.60;100.00;97431.59;4964184;28;20026;-79
2022/12/24 02:07:01;;;;;;;69.63;27.08;;;;;;;0.50;100.00;97412.53;4965529;28;20034;-78
2022/12/24 02:09:27;;;;;;;68.97;27.92;;;;;;;0.52;100.00;97414.22;4983397;28;20037;-80
2022/12/24 02:11:53;;;;;;;68.93;27.73;;;;;;;0.63;100.00;97421.00;4961395;28;20482;-80
2022/12/24 02:14:18;;;;;;;73.55;31.05;;;;;;;0.53;100.00;97410.69;4975907;28;20030;-80
2022/12/24 02:17:21;;;;;;;64.50;26.20;;;;;;;0.58;100.00;97413.22;4967709;28;20029;-80
2022/12/24 02:19:52;;;;;;;;;;;;;;;0.60;100.00;97415.81;4980836;28;20046;-79
2022/12/24 02:22:34;;;;;;;62.05;27.25;;;;;;;0.60;100.00;97416.69;4984756;28;19920;-79
2022/12/24 02:25:40;;;;;;;61.38;27.13;;;;;;;0.61;100.00;97415.78;4971980;28;20032;-79
2022/12/24 02:28:44;;;;;;;71.13;28.00;;;;;;;0.61;100.00;97423.69;4977733;28;20172;-78
2022/12/24 02:31:45;;;;;;;73.20;30.02;;;;;;;0.66;100.00;97428.81;4987876;28;20041;-79
2022/12/24 02:34:18;;;;;;;82.78;30.15;;;;;;;0.58;100.00;97433.41;4981719;28;20042;-79
2022/12/24 02:37:17;;;;;;;103.40;38.10;;;;;;;0.58;100.00;97433.41;4979458;28;20483;-78
2022/12/24 02:39:50;;;;;;;83.20;32.03;;;;;;;0.53;100.00;97431.75;4952614;28;20038;-79
2022/12/24 02:42:19;;;;;;;84.15;37.00;;;;;;;0.55;100.00;97432.56;4968026;28;20030;-80
2022/12/24 02:44:50;;;;;;;93.32;36.33;;;;;;;0.50;100.00;97426.56;4966230;28;20614;-79
2022/12/24 02:47:17;;;;;;;81.95;34.78;;;;;;;0.51;100.00;97411.66;4979162;28;20034;-80
2022/12/24 02:49:44;;;;;;;113.28;40.67;;;;;;;0.55;100.00;97424.66;4979268;28;20109;-80
2022/12/24 02:52:33;;;;;;;118.55;42.50;;;;;;;0.61;100.00;97430.69;4970436;28;20129;-80
2022/12/24 02:55:04;;;;;;;109.22;41.15;;;;;;;0.53;100.00;97423.84;4967154;28;20043;-80
2022/12/24 02:57:55;;;;;;;132.27;49.35;;;;;;;0.54;100.00;97422.97;4959746;28;20022;-80
2022/12/24 03:00:22;;;;;;;102.30;40.72;;;;;;;0.51;100.00;97412.50;4980749;28;20481;-79
2022/12/24 03:03:06;;;;;;;131.40;48.58;;;;;;;0.52;100.00;97414.22;4977821;28;20114;-79
2022/12/24 03:05:46;;;;;;;156.30;52.58;;;;;;;0.49;100.00;97414.28;4980770;28;20026;-79
2022/12/24 03:08:38;;;;;;;127.53;49.70;;;;;;;0.44;100.00;97408.28;4968176;28;20038;-79
2022/12/24 03:11:14;;;;;;;136.80;52.55;;;;;;;0.35;100.00;97411.16;4979433;28;20030;-79
2022/12/24 03:13:41;;;;;;;156.75;52.03;;;;;;;0.37;100.00;97413.75;4984712;28;20564;-79
2022/12/24 03:16:10;;;;;;;159.82;56.78;;;;;;;0.25;100.00;97414.03;4963573;28;20564;-79
2022/12/24 03:18:38;;;;;;;143.80;59.03;;;;;;;0.22;100.00;97414.09;4983679;28;20059;-79
2022/12/24 03:21:32;;;;;;;157.00;57.97;;;;;;;0.10;100.00;97399.47;4966753;28;20046;-78
2022/12/24 03:23:57;;;;;;;134.52;52.63;;;;;;;0.13;100.00;97412.56;4961786;28;20494;-80
2022/12/24 03:26:25;;;;;;;135.50;51.72;;;;;;;0.22;100.00;97421.97;4973551;28;20037;-79
2022/12/24 03:28:50;;;;;;;108.65;43.45;;;;;;;0.05;100.00;97411.00;4985122;28;20053;-78
2022/12/24 03:31:17;;;;;;;109.95;43.55;;;;;;;0.04;100.00;97415.41;4979893;28;20034;-79
2022/12/24 03:33:43;;;;;;;108.38;42.00;;;;;;;-0.03;100.00;97424.31;4982282;28;20026;-78
2022/12/24 03:36:09;;;;;;;103.22;41.55;;;;;;;-0.08;100.00;97406.03;4963030;28;20032;-79
2022/12/24 03:38:35;;;;;;;234.30;80.95;;;;;;;-0.07;100.00;97396.38;4966331;28;20034;-80
2022/12/24 03:41:01;;;;;;;143.50;50.80;;;;;;;-0.08;100.00;97394.66;4979886;28;20030;-78
2022/12/24 03:43:26;;;;;;;155.32;54.25;;;;;;;-0.14;100.00;97394.78;4967032;28;20030;-78
2022/12/24 03:45:52;;;;;;;112.97;42.40;;;;;;;-0.17;100.00;97394.84;4958846;28;20027;-78
2022/12/24 03:48:17;;;;;;;117.93;43.95;;;;;;;-0.23;100.00;97397.63;4966770;28;20567;-80
2022/12/24 03:50:43;;;;;;;113.78;42.47;;;;;;;-0.15;100.00;97412.31;4963037;28;20027;-80
2022/12/24 03:53:08;;;;;;;105.38;41.40;;;;;;;-0.14;100.00;97416.69;4982479;28;20033;-79
2022/12/24 03:55:34;;;;;;;93.28;37.05;;;;;;;-0.24;100.00;97422.16;4963341;28;20027;-79
2022/12/24 03:57:59;;;;;;;102.22;40.92;;;;;;;-0.31;100.00;97412.69;4964951;28;20510;-79
2022/12/24 04:00:25;;;;;;;154.30;54.53;;;;;;;-0.27;100.00;97416.97;4961819;28;20458;-78
2022/12/24 04:02:50;;;;;;;126.68;46.85;;;;;;;-0.28;100.00;97434.53;4966197;28;20053;-79
2022/12/24 04:05:18;;;;;;;125.50;46.95;;;;;;;-0.29;100.00;97437.16;4964598;28;20486;-79
2022/12/24 04:07:45;;;;;;;133.48;53.47;;;;;;;-0.22;100.00;97442.28;4962506;28;20085;-80
2022/12/24 04:10:12;;;;;;;145.38;54.50;;;;;;;-0.15;100.00;97453.50;4969514;28;20022;-79
2022/12/24 04:12:37;;;;;;;129.85;53.03;;;;;;;-0.21;100.00;97451.00;4970846;28;20030;-80
2022/12/24 04:15:04;;;;;;;135.32;50.72;;;;;;;-0.16;100.00;97462.28;4968226;28;20553;-79
2022/12/24 04:17:29;;;;;;;126.65;49.90;;;;;;;-0.07;100.00;97481.38;4964374;28;20133;-80
2022/12/24 04:19:55;;;;;;;121.03;50.40;;;;;;;-0.17;100.00;97473.69;4974236;28;20077;-79
2022/12/24 04:22:20;;;;;;;148.40;56.50;;;;;;;-0.15;100.00;97477.13;4966121;28;20034;-79
2022/12/24 04:24:46;;;;;;;149.68;57.53;;;;;;;-0.16;100.00;97470.19;4962160;28;20031;-80
2022/12/24 04:27:15;;;;;;;139.10;54.67;;;;;;;-0.15;100.00;97461.38;4984924;28;20034;-81
2022/12/24 04:29:41;;;;;;;115.22;46.08;;;;;;;-0.26;100.00;97459.00;4986933;28;20472;-80
2022/12/24 04:32:09;;;;;;;115.50;44.85;;;;;;;-0.24;100.00;97467.69;4969949;28;20065;-80
2022/12/24 04:34:35;;;;;;;132.05;49.13;;;;;;;-0.26;100.00;97476.50;4970322;28;20065;-80
2022/12/24 04:37:01;;;;;;;112.85;45.72;;;;;;;-0.27;100.00;97485.28;4962434;28;20610;-80
2022/12/24 04:39:26;;;;;;;113.53;45.45;;;;;;;-0.30;100.00;97470.44;4966740;28;20125;-80
2022/12/24 04:41:52;;;;;;;111.15;46.10;;;;;;;-0.35;100.00;97468.81;4973743;28;20042;-79
2022/12/24 04:44:17;;;;;;;104.95;43.53;;;;;;;-0.24;100.00;97478.22;4989633;28;20491;-80
2022/12/24 04:46:43;;;;;;;123.45;45.83;;;;;;;-0.25;100.00;97480.88;4972882;28;20521;-80
2022/12/24 04:49:09;;;;;;;108.93;41.85;;;;;;;-0.19;100.00;97488.63;4973689;28;20038;-79
2022/12/24 04:51:35;;;;;;;108.80;42.00;;;;;;;-0.28;100.00;97480.94;4971035;28;20473;-77
2022/12/24 04:54:01;;;;;;;106.07;39.95;;;;;;;-0.32;100.00;97474.00;4986245;28;20038;-81
2022/12/24 04:56:29;;;;;;;106.18;41.40;;;;;;;-0.31;100.00;97478.38;4974646;28;20018;-78
2022/12/24 04:58:55;;;;;;;107.63;43.72;;;;;;;-0.38;100.00;97468.88;4998779;28;20470;-80
2022/12/24 05:01:22;;;;;;;118.70;43.60;;;;;;;-0.41;100.00;97477.69;4987877;28;20079;-78
2022/12/24 05:03:48;;;;;;;106.78;42.28;;;;;;;-0.35;100.00;97476.69;4962878;28;20109;-78
2022/12/24 05:06:17;;;;;;;105.45;42.53;;;;;;;-0.36;100.00;97475.84;4974415;28;20093;-78
2022/12/24 05:08:43;;;;;;;107.45;42.15;;;;;;;-0.35;100.00;97479.31;4979043;28;20030;-78
2022/12/24 05:11:14;;;;;;;103.53;40.42;;;;;;;-0.35;100.00;97480.19;4970491;28;20038;-82
2022/12/24 05:13:43;;;;;;;103.07;40.80;;;;;;;-0.33;100.00;97472.28;4959040;28;20093;-80
2022/12/24 05:16:09;;;;;;;109.93;41.33;;;;;;;-0.31;100.00;97478.38;4986866;28;20464;-81
2022/12/24 05:18:35;;;;;;;109.57;44.60;;;;;;;-0.36;100.00;97456.56;4964957;28;20093;-81
2022/12/24 05:21:01;;;;;;;115.10;44.53;;;;;;;-0.28;100.00;97459.91;4968503;28;20065;-79
2022/12/24 05:26:22;;;;;;;137.48;54.72;;;;;;;-0.32;100.00;97445.09;4992273;28;20172;-80
2022/12/24 05:28:49;;;;;;;151.75;54.65;;;;;;;-0.27;100.00;97446.75;4973500;28;20031;-78
2022/12/24 05:31:14;;;;;;;125.82;49.53;;;;;;;-0.31;100.00;97447.72;4979174;28;20034;-78
2022/12/24 05:33:40;;;;;;;135.00;47.72;;;;;;;-0.29;100.00;97445.03;4968144;28;20034;-77
2022/12/24 05:36:06;;;;;;;106.60;43.72;;;;;;;-0.34;100.00;97439.88;4964214;28;20035;-78
2022/12/24 05:38:32;;;;;;;113.53;44.00;;;;;;;-0.29;100.00;97442.41;4964709;28;20034;-75
2022/12/24 05:40:57;;;;;;;111.55;45.10;;;;;;;-0.39;100.00;97435.63;4980586;28;20093;-77
2022/12/24 05:43:23;;;;;;;131.90;48.28;;;;;;;-0.36;100.00;97436.41;4970540;28;20041;-76
2022/12/24 05:45:48;;;;;;;115.93;44.97;;;;;;;-0.36;100.00;97430.31;4992072;28;20037;-81
2022/12/24 05:48:17;;;;;;;107.32;42.80;;;;;;;-0.37;100.00;97423.34;4961396;28;20035;-81
2022/12/24 05:50:42;;;;;;;112.15;46.08;;;;;;;-0.29;100.00;97443.28;4981024;28;20031;-81
2022/12/24 05:53:08;;;;;;;138.93;53.80;;;;;;;-0.30;100.00;97443.31;4971909;28;20034;-72
2022/12/24 05:55:33;;;;;;;156.05;59.42;;;;;;;-0.20;100.00;97442.22;4971485;28;20036;-78
2022/12/24 05:57:59;;;;;;;158.73;53.40;;;;;;;-0.13;100.00;97467.47;4971416;28;20500;-73
2022/12/24 06:00:25;;;;;;;177.60;66.63;;;;;;;-0.12;100.00;97469.19;4975615;28;20037;-75
2022/12/24 06:02:51;;;;;;;191.10;66.32;;;;;;;-0.01;100.00;97483.00;4971401;28;20030;-77
2022/12/24 06:05:16;;;;;;;178.75;58.50;;;;;;;0.07;100.00;97488.06;4979320;28;20030;-73
2022/12/24 06:07:42;;;;;;;173.93;57.28;;;;;;;0.12;100.00;97502.88;4967375;28;20062;-79
2022/12/24 06:10:08;;;;;;;109.57;43.65;;;;;;;0.09;100.00;97502.94;4964064;28;20085;-75
2022/12/24 06:12:34;;;;;;;110.22;42.40;;;;;;;0.25;100.00;97509.56;4964533;28;20122;-76
2022/12/24 06:14:59;;;;;;;95.70;37.33;;;;;;;0.21;100.00;97492.16;4960944;28;20062;-80
2022/12/24 06:17:28;;;;;;;133.63;51.22;;;;;;;0.23;100.00;97468.44;4975662;28;20033;-83
2022/12/24 06:19:53;;;;;;;189.88;64.65;;;;;;;0.33;100.00;97469.97;4968704;28;20145;-81
2022/12/24 06:22:19;;;;;;;165.63;57.65;;;;;;;0.49;100.00;97466.91;4974395;28;20069;-76
2022/12/24 06:24:44;;;;;;;158.50;53.97;;;;;;;0.61;100.00;97454.38;4979994;28;20030;-75
2022/12/24 06:27:10;;;;;;;256.70;85.05;;;;;;;0.60;100.00;97428.97;4960992;28;20045;-75
2022/12/24 06:29:35;;;;;;;143.50;51.15;;;;;;;0.80;100.00;97443.34;4956622;28;20122;-76
2022/12/24 06:32:01;;;;;;;103.22;40.05;;;;;;;0.69;100.00;97415.56;4967462;28;20034;-81
2022/12/24 06:34:26;;;;;;;92.57;36.95;;;;;;;0.74;100.00;97434.75;4965165;28;20092;-81
2022/12/24 06:36:52;;;;;;;102.05;38.20;;;;;;;0.82;100.00;97432.78;4965742;28;20457;-75
2022/12/24 06:39:18;;;;;;;91.55;38.50;;;;;;;0.93;100.00;97436.88;4970788;28;20104;-77
2022/12/24 06:41:43;;;;;;;144.00;52.50;;;;;;;1.00;100.00;97448.13;4969374;28;20078;-78
2022/12/24 06:44:09;;;;;;;186.43;66.03;;;;;;;1.08;100.00;97436.47;4964740;28;20042;-81
2022/12/24 06:46:34;;;;;;;154.40;62.92;;;;;;;1.28;100.00;97449.13;4966630;28;20100;-80
2022/12/24 06:49:00;;;;;;;197.75;81.50;;;;;;;1.31;100.00;97448.16;4979227;28;20045;-79
2022/12/24 06:51:25;;;;;;;178.18;71.45;;;;;;;1.31;100.00;97445.53;4962230;28;20035;-77
2022/12/24 06:53:51;;;;;;;158.65;66.20;;;;;;;1.40;100.00;97454.06;4969751;28;20022;-79
2022/12/24 06:56:43;;;;;;;161.32;68.63;;;;;;;1.32;100.00;97428.81;4982788;28;20413;-77
2022/12/24 06:59:09;;;;;;;160.25;65.80;;;;;;;1.35;100.00;97440.16;4986437;28;20124;-78
2022/12/24 07:01:41;;;;;;;187.75;79.05;;;;;;;1.39;100.00;97428.59;4972129;28;20128;-79
2022/12/24 07:04:06;;;;;;;195.40;82.97;;;;;;;1.43;100.00;97445.19;4968186;28;20593;-77
2022/12/24 07:07:04;;;;;;;194.20;84.85;;;;;;;1.44;100.00;97439.91;4986265;28;20031;-77
2022/12/24 07:09:30;;;;;;;202.45;86.47;;;;;;;1.07;100.00;97375.97;4948842;28;20047;-79
2022/12/24 07:12:02;;;;;;;162.00;66.90;;;;;;;1.30;100.00;97415.69;4984552;28;20023;-77
2022/12/24 07:14:28;;;;;;;145.15;57.03;;;;;;;1.37;100.00;97440.97;4980533;28;20140;-79
2022/12/24 07:16:53;;;;;;;138.73;59.80;;;;;;;2.12;100.00;97487.13;4978791;28;20058;-77
2022/12/24 07:19:19;;;;;;;124.45;53.25;;;;;;;3.25;100.00;97501.09;4985734;28;20027;-85
2022/12/24 07:21:44;;;;;;;114.88;50.53;;;;;;;4.26;100.00;97478.03;4981005;28;20528;-78
2022/12/24 07:24:10;;;;;;;128.27;51.97;;;;;;;5.56;100.00;97450.59;4962560;28;20453;-77
2022/12/24 07:26:36;;;;;;;146.02;65.47;;;;;;;6.73;100.00;97404.41;4975794;28;20461;-78
2022/12/24 07:29:01;;;;;;;104.13;48.83;;;;;;;7.80;100.00;97383.78;4975522;28;20045;-80
2022/12/24 07:31:27;;;;;;;125.38;57.33;;;;;;;8.80;93.72;97352.38;4986571;28;20109;-79
2022/12/24 07:33:52;;;;;;;110.93;52.40;;;;;;;9.07;89.01;97302.75;4968859;28;20044;-79
2022/12/24 07:36:20;;;;;;;130.77;62.15;;;;;;;9.78;84.28;97298.31;4961296;28;20118;-79
2022/12/24 07:38:45;;;;;;;134.30;60.47;;;;;;;10.34;79.68;97270.66;4967964;28;20117;-80
2022/12/24 07:41:11;;;;;;;129.15;63.05;;;;;;;10.53;75.60;97238.22;4980815;28;20062;-79
2022/12/24 07:43:36;;;;;;;133.60;61.05;;;;;;;10.40;75.41;97215.09;4976688;28;20431;-80
2022/12/24 07:46:02;;;;;;;139.23;62.88;;;;;;;9.97;77.56;97190.28;4976402;28;20510;-77
2022/12/24 07:48:29;;;;;;;134.98;63.92;;;;;;;9.10;82.66;97177.19;4970311;28;20541;-79
2022/12/24 07:50:56;;;;;;;142.07;64.53;;;;;;;8.44;88.73;97170.59;4972596;28;20026;-79
2022/12/24 07:53:22;;;;;;;125.30;60.53;;;;;;;8.03;93.67;97176.50;4974037;28;20500;-78
2022/12/24 07:55:47;;;;;;;143.90;67.63;;;;;;;8.08;96.35;97181.59;4975802;28;20123;-78
2022/12/24 07:58:13;;;;;;;151.48;69.47;;;;;;;8.18;96.61;97186.28;4966285;28;20034;-80
2022/12/24 08:00:38;;;;;;;197.57;88.07;;;;;;;8.75;95.16;97202.47;4978301;28;20030;-82
2022/12/24 08:03:04;;;;;;;368.10;181.38;;;;;;;9.20;95.06;97210.31;4971274;28;20038;-83
2022/12/24 08:05:34;;;;;;;272.40;128.82;;;;;;;10.13;87.36;97209.72;4992466;28;20032;-81
2022/12/24 08:08:05;;;;;;;229.73;109.78;;;;;;;10.61;82.95;97190.41;4974934;28;20473;-79
2022/12/24 08:10:31;;;;;;;210.25;105.70;;;;;;;11.13;79.32;97179.69;4990740;28;20092;-79
2022/12/24 08:12:57;;;;;;;243.88;118.40;;;;;;;10.88;78.84;97163.63;4996777;28;20023;-77
2022/12/24 08:15:22;;;;;;;236.27;117.72;;;;;;;10.00;84.33;97155.34;4994755;28;20029;-78
2022/12/24 08:17:48;;;;;;;221.45;106.93;;;;;;;9.73;87.52;97158.03;5002620;28;20041;-77
2022/12/24 08:20:15;;;;;;;224.00;109.40;;;;;;;9.70;89.47;97164.41;4973826;28;20046;-80
2022/12/24 08:22:40;;;;;;;206.65;102.97;;;;;;;9.49;91.74;97156.94;4972834;28;20091;-77
2022/12/24 08:25:06;;;;;;;226.65;106.55;;;;;;;9.62;91.31;97169.41;4969482;28;20030;-78
2022/12/24 08:27:32;;;;;;;221.50;108.13;;;;;;;9.77;91.63;97180.91;4994877;28;20185;-78
2022/12/24 08:29:57;;;;;;;218.98;104.63;;;;;;;9.48;93.01;97171.22;4982123;28;20073;-78
2022/12/24 08:32:23;;;;;;;209.60;101.85;;;;;;;9.36;94.00;97167.53;4987596;28;20037;-80
2022/12/24 08:34:49;;;;;;;183.20;92.18;;;;;;;9.45;92.33;97163.41;4978578;28;20030;-76
2022/12/24 08:37:14;;;;;;;172.63;79.78;;;;;;;8.79;96.04;97142.69;4972679;28;20485;-76
2022/12/24 08:39:43;;;;;;;161.63;75.70;;;;;;;8.63;99.06;97148.09;5003769;28;20039;-79
2022/12/24 08:42:09;;;;;;;156.38;76.38;;;;;;;8.68;99.25;97150.47;4989822;28;20440;-82
2022/12/24 08:44:34;;;;;;;158.85;72.88;;;;;;;8.65;99.84;97150.66;4987468;28;20034;-75
2022/12/24 08:47:00;;;;;;;180.60;83.72;;;;;;;8.29;100.00;97128.88;5001419;28;20041;-82
2022/12/24 08:49:25;;;;;;;211.82;99.15;;;;;;;8.36;100.00;97136.44;4972547;28;20079;-83
2022/12/24 08:51:51;;;;;;;237.50;110.97;;;;;;;8.29;100.00;97131.53;4973892;28;20117;-79
2022/12/24 08:54:17;;;;;;;254.02;120.43;;;;;;;8.19;100.00;97145.38;4976905;28;20112;-81
2022/12/24 08:56:43;;;;;;;281.00;141.77;;;;;;;8.11;100.00;97131.66;4961631;28;20042;-78
2022/12/24 08:59:10;;;;;;;267.05;123.28;;;;;;;8.00;100.00;97151.84;4978338;28;20532;-80
2022/12/24 09:01:36;;;;;;;212.40;103.22;;;;;;;8.33;100.00;97168.59;4988886;28;20036;-79
2022/12/24 09:04:01;;;;;;;229.82;111.47;;;;;;;8.69;100.00;97192.19;4980716;28;20033;-79
2022/12/24 09:06:27;;;;;;;216.30;107.28;;;;;;;9.05;100.00;97183.72;4990738;28;20025;-80
2022/12/24 09:08:52;;;;;;;265.35;128.90;;;;;;;9.32;100.00;97179.34;4996546;28;20496;-79
2022/12/24 09:11:19;;;;;;;265.60;137.07;;;;;;;9.35;100.00;97144.44;4990638;28;20030;-79
2022/12/24 09:13:45;;;;;;;223.90;114.20;;;;;;;8.88;100.00;97142.13;4980100;28;20445;-79
2022/12/24 09:16:11;;;;;;;174.38;85.32;;;;;;;8.95;100.00;97148.75;4964306;28;20030;-79
2022/12/24 09:18:37;;;;;;;167.68;76.85;;;;;;;8.79;100.00;97145.34;4960596;28;20489;-79
2022/12/24 09:21:06;;;;;;;187.32;89.57;;;;;;;8.75;100.00;97143.81;4983228;28;20053;-80
2022/12/24 09:23:34;;;;;;;194.77;95.63;;;;;;;8.70;100.00;97151.25;4987563;28;20420;-77
2022/12/24 09:26:04;;;;;;;218.40;112.43;;;;;;;8.67;100.00;97136.25;4978902;28;20124;-77
2022/12/24 09:28:30;;;;;;;222.05;115.05;;;;;;;8.75;100.00;97141.16;4979262;28;20037;-77
2022/12/24 09:30:57;;;;;;;214.85;110.75;;;;;;;9.07;100.00;97145.34;4987516;28;20026;-78
2022/12/24 09:33:23;;;;;;;211.27;113.78;;;;;;;9.14;100.00;97130.66;4970815;28;20382;-78
2022/12/24 09:35:52;;;;;;;209.25;105.65;;;;;;;9.39;100.00;97135.31;4969252;28;20099;-77
2022/12/24 09:38:19;;;;;;;211.88;110.05;;;;;;;9.63;100.00;97143.53;4966090;28;20031;-78
2022/12/24 09:40:45;;;;;;;212.30;105.88;;;;;;;9.53;100.00;97121.09;4972248;28;20026;-76
2022/12/24 09:43:24;;;;;;;200.73;97.25;;;;;;;9.64;100.00;97130.09;4969090;28;20041;-82
2022/12/24 09:46:12;;;;;;;188.20;93.97;;;;;;;9.40;100.00;97141.50;4974591;28;20045;-81
2022/12/24 09:48:41;;;;;;;248.25;125.38;;;;;;;8.74;100.00;97136.75;4968178;28;20038;-81
2022/12/24 09:51:26;;;;;;;264.50;127.35;;;;;;;8.72;100.00;97170.66;4974532;28;20501;-82
2022/12/24 09:54:02;;;;;;;251.55;130.85;;;;;;;8.87;100.00;97174.19;4970958;28;20037;-80
2022/12/24 09:56:36;;;;;;;245.25;122.47;;;;;;;8.99;100.00;97160.97;4971521;28;20018;-81
2022/12/24 09:59:04;;;;;;;225.98;114.85;;;;;;;9.16;100.00;97181.28;4971416;28;20064;-82
2022/12/24 10:01:32;;;;;;;234.82;120.80;;;;;;;9.23;100.00;97167.44;4992187;28;20022;-82
2022/12/24 10:04:18;;;;;;;249.65;125.07;;;;;;;9.66;100.00;97202.09;4961715;28;20065;-82
2022/12/24 10:06:44;;;;;;;260.98;132.25;;;;;;;9.83;100.00;97180.50;4995303;28;20438;-83
2022/12/24 10:09:39;;;;;;;286.23;142.00;;;;;;;9.78;100.00;97166.63;4983729;28;20065;-83
2022/12/24 10:12:11;;;;;;;223.93;115.70;;;;;;;10.07;100.00;97173.56;4985947;28;20064;-81
2022/12/24 10:14:49;;;;;;;219.88;116.45;;;;;;;10.37;100.00;97172.53;4973144;28;20404;-81
2022/12/24 10:17:44;;;;;;;184.23;97.13;;;;;;;10.75;100.00;97170.78;4967556;28;20081;-81
2022/12/24 10:20:40;;;;;;;161.23;85.88;;;;;;;10.91;100.00;97149.16;4980719;28;20053;-81
2022/12/24 10:23:31;;;;;;;171.32;84.07;;;;;;;10.57;100.00;97129.25;4992424;28;20029;-81
2022/12/24 10:26:09;;;;;;;138.77;70.28;;;;;;;10.50;100.00;97135.97;4964637;28;20507;-82
2022/12/24 10:28:55;;;;;;;138.85;66.25;;;;;;;10.49;100.00;97140.44;4967849;28;20397;-82
2022/12/24 10:31:33;;;;;;;145.75;75.05;;;;;;;10.37;100.00;97130.59;4964747;28;20493;-82
2022/12/24 10:34:11;;;;;;;139.63;65.20;;;;;;;10.54;100.00;97132.13;4972475;28;20473;-82
2022/12/24 10:36:37;;;;;;;128.88;65.68;;;;;;;10.62;100.00;97127.09;4967164;28;20084;-81
2022/12/24 10:39:02;;;;;;;136.65;64.10;;;;;;;10.50;100.00;97122.59;4972466;28;20029;-83
2022/12/24 10:41:29;;;;;;;111.63;53.47;;;;;;;10.72;100.00;97118.34;4964926;28;20041;-81
2022/12/24 10:43:55;;;;;;;81.43;41.72;;;;;;;10.67;100.00;97106.25;4975416;28;20551;-81
2022/12/24 10:46:38;;;;;;;92.00;43.67;;;;;;;10.78;100.00;97104.53;4992069;28;20061;-82
2022/12/24 10:49:06;;;;;;;89.38;43.83;;;;;;;10.89;100.00;97111.78;4970404;28;20415;-83
2022/12/24 10:51:44;;;;;;;83.93;43.40;;;;;;;10.94;100.00;97125.72;4978748;28;20033;-82
2022/12/24 10:54:16;;;;;;;87.15;44.05;;;;;;;10.78;100.00;97114.38;4988100;28;20025;-83
2022/12/24 10:56:43;;;;;;;;;;;;;;;10.61;100.00;97117.38;4973330;28;20064;-82
2022/12/24 10:59:22;;;;;;;111.13;53.35;;;;;;;10.73;100.00;97137.94;4968859;28;19917;-82
2022/12/24 11:01:48;;;;;;;128.98;57.97;;;;;;;10.96;100.00;97139.84;4988202;28;20033;-83
2022/12/24 11:04:35;;;;;;;109.38;53.75;;;;;;;10.63;100.00;97135.03;4979753;28;20390;-83
2022/12/24 11:07:04;;;;;;;95.00;46.80;;;;;;;10.87;100.00;97143.16;4973193;28;20033;-83
2022/12/24 11:09:32;;;;;;;85.40;38.75;;;;;;;11.04;100.00;97124.13;4966476;28;20026;-83
2022/12/24 11:11:59;;;;;;;82.30;43.25;;;;;;;10.72;100.00;97118.34;4970379;28;20061;-83
2022/12/24 11:14:35;;;;;;;98.30;47.50;;;;;;;10.99;100.00;97139.63;4968027;28;20494;-83
2022/12/24 11:17:00;;;;;;;97.35;48.50;;;;;;;11.17;100.00;97143.69;4986119;28;20486;-82
2022/12/24 11:19:32;;;;;;;96.18;46.63;;;;;;;11.22;100.00;97130.84;4982218;28;20041;-82
2022/12/24 11:22:04;;;;;;;158.15;72.63;;;;;;;11.35;100.00;97137.03;4974534;28;20478;-82
2022/12/24 11:24:33;;;;;;;134.90;67.95;;;;;;;11.32;100.00;97131.88;4958913;28;20099;-80